sensor_id;sensor_type;location;lat;lon;timestamp;temperature;humidity
25732;DHT22;13585;50.864;4.406;2023-12-04T00:02:06;17.60;53.90
25732;DHT22;13585;50.864;4.406;2023-12-04T00:04:32;17.60;53.90
25732;DHT22;13585;50.864;4.406;2023-12-04T00:06:58;17.60;53.90
25732;DHT22;13585;50.864;4.406;2023-12-04T00:09:24;17.60;53.90
25732;DHT22;13585;50.864;4.406;2023-12-04T00:11:50;17.60;53.80
25732;DHT22;13585;50.864;4.406;2023-12-04T00:14:15;17.60;53.80
25732;DHT22;13585;50.864;4.406;2023-12-04T00:16:41;17.60;53.80
25732;DHT22;13585;50.864;4.406;2023-12-04T00:19:07;17.60;53.80
25732;DHT22;13585;50.864;4.406;2023-12-04T00:21:32;17.60;53.70
25732;DHT22;13585;50.864;4.406;2023-12-04T00:23:58;17.60;53.70
25732;DHT22;13585;50.864;4.406;2023-12-04T00:26:24;17.60;53.70
25732;DHT22;13585;50.864;4.406;2023-12-04T00:28:49;17.60;54.30
25732;DHT22;13585;50.864;4.406;2023-12-04T00:31:15;17.50;53.60
25732;DHT22;13585;50.864;4.406;2023-12-04T00:33:40;17.60;53.60
25732;DHT22;13585;50.864;4.406;2023-12-04T00:36:09;17.50;53.50
25732;DHT22;13585;50.864;4.406;2023-12-04T00:38:35;17.50;53.50
25732;DHT22;13585;50.864;4.406;2023-12-04T00:41:01;17.50;53.50
25732;DHT22;13585;50.864;4.406;2023-12-04T00:43:26;17.50;53.40
25732;DHT22;13585;50.864;4.406;2023-12-04T00:45:52;17.50;53.40
25732;DHT22;13585;50.864;4.406;2023-12-04T00:48:17;17.50;53.40
25732;DHT22;13585;50.864;4.406;2023-12-04T00:50:43;17.50;53.40
25732;DHT22;13585;50.864;4.406;2023-12-04T00:53:09;17.50;53.30
25732;DHT22;13585;50.864;4.406;2023-12-04T00:55:34;17.50;53.40
25732;DHT22;13585;50.864;4.406;2023-12-04T00:58:00;17.50;53.30
25732;DHT22;13585;50.864;4.406;2023-12-04T01:00:25;17.50;53.20
25732;DHT22;13585;50.864;4.406;2023-12-04T01:02:51;17.50;53.20
25732;DHT22;13585;50.864;4.406;2023-12-04T01:05:17;17.50;53.20
25732;DHT22;13585;50.864;4.406;2023-12-04T01:07:42;17.50;53.20
25732;DHT22;13585;50.864;4.406;2023-12-04T01:10:08;17.50;53.20
25732;DHT22;13585;50.864;4.406;2023-12-04T01:12:34;17.50;53.20
25732;DHT22;13585;50.864;4.406;2023-12-04T01:15:01;17.50;53.10
25732;DHT22;13585;50.864;4.406;2023-12-04T01:17:27;17.50;53.10
25732;DHT22;13585;50.864;4.406;2023-12-04T01:19:52;17.50;53.10
25732;DHT22;13585;50.864;4.406;2023-12-04T01:22:18;17.40;53.10
25732;DHT22;13585;50.864;4.406;2023-12-04T01:24:43;17.40;53.00
25732;DHT22;13585;50.864;4.406;2023-12-04T01:27:09;17.40;53.00
25732;DHT22;13585;50.864;4.406;2023-12-04T01:29:36;17.40;53.00
25732;DHT22;13585;50.864;4.406;2023-12-04T01:32:01;17.50;53.00
25732;DHT22;13585;50.864;4.406;2023-12-04T01:34:27;17.40;52.90
25732;DHT22;13585;50.864;4.406;2023-12-04T01:36:53;17.50;52.90
25732;DHT22;13585;50.864;4.406;2023-12-04T01:39:18;17.50;52.90
25732;DHT22;13585;50.864;4.406;2023-12-04T01:41:44;17.40;52.80
25732;DHT22;13585;50.864;4.406;2023-12-04T01:44:09;17.50;52.90
25732;DHT22;13585;50.864;4.406;2023-12-04T01:46:36;17.40;52.80
25732;DHT22;13585;50.864;4.406;2023-12-04T01:49:02;17.50;52.80
25732;DHT22;13585;50.864;4.406;2023-12-04T01:51:29;17.40;52.70
25732;DHT22;13585;50.864;4.406;2023-12-04T01:53:57;17.40;52.70
25732;DHT22;13585;50.864;4.406;2023-12-04T01:56:24;17.40;52.70
25732;DHT22;13585;50.864;4.406;2023-12-04T01:58:50;17.40;52.60
25732;DHT22;13585;50.864;4.406;2023-12-04T02:01:30;17.40;52.60
25732;DHT22;13585;50.864;4.406;2023-12-04T02:04:11;17.40;52.70
25732;DHT22;13585;50.864;4.406;2023-12-04T02:06:43;17.40;52.60
25732;DHT22;13585;50.864;4.406;2023-12-04T02:09:46;17.40;52.60
25732;DHT22;13585;50.864;4.406;2023-12-04T02:12:14;17.30;52.50
25732;DHT22;13585;50.864;4.406;2023-12-04T02:14:40;17.50;52.50
25732;DHT22;13585;50.864;4.406;2023-12-04T02:17:11;17.40;52.50
25732;DHT22;13585;50.864;4.406;2023-12-04T02:19:40;17.40;52.50
25732;DHT22;13585;50.864;4.406;2023-12-04T02:22:21;17.40;52.50
25732;DHT22;13585;50.864;4.406;2023-12-04T02:25:05;17.40;52.50
25732;DHT22;13585;50.864;4.406;2023-12-04T02:27:40;17.40;52.40
25732;DHT22;13585;50.864;4.406;2023-12-04T02:30:11;17.30;52.30
25732;DHT22;13585;50.864;4.406;2023-12-04T02:32:42;17.30;52.30
25732;DHT22;13585;50.864;4.406;2023-12-04T02:35:09;17.30;52.30
25732;DHT22;13585;50.864;4.406;2023-12-04T02:37:35;17.40;52.40
25732;DHT22;13585;50.864;4.406;2023-12-04T02:40:01;17.40;52.20
25732;DHT22;13585;50.864;4.406;2023-12-04T02:42:27;17.40;52.20
25732;DHT22;13585;50.864;4.406;2023-12-04T02:44:53;17.30;52.20
25732;DHT22;13585;50.864;4.406;2023-12-04T02:47:19;17.40;52.30
25732;DHT22;13585;50.864;4.406;2023-12-04T02:49:44;17.50;52.30
25732;DHT22;13585;50.864;4.406;2023-12-04T02:52:10;17.30;52.20
25732;DHT22;13585;50.864;4.406;2023-12-04T02:54:36;17.30;52.20
25732;DHT22;13585;50.864;4.406;2023-12-04T02:57:02;17.30;52.10
25732;DHT22;13585;50.864;4.406;2023-12-04T02:59:27;17.30;52.10
25732;DHT22;13585;50.864;4.406;2023-12-04T03:01:53;17.30;52.10
25732;DHT22;13585;50.864;4.406;2023-12-04T03:04:21;17.30;52.10
25732;DHT22;13585;50.864;4.406;2023-12-04T03:06:49;17.30;52.00
25732;DHT22;13585;50.864;4.406;2023-12-04T03:09:17;17.30;52.00
25732;DHT22;13585;50.864;4.406;2023-12-04T03:11:42;17.30;52.00
25732;DHT22;13585;50.864;4.406;2023-12-04T03:14:08;17.30;52.00
25732;DHT22;13585;50.864;4.406;2023-12-04T03:16:34;17.30;52.00
25732;DHT22;13585;50.864;4.406;2023-12-04T03:18:59;17.30;52.00
25732;DHT22;13585;50.864;4.406;2023-12-04T03:21:25;17.30;51.90
25732;DHT22;13585;50.864;4.406;2023-12-04T03:23:51;17.30;51.90
25732;DHT22;13585;50.864;4.406;2023-12-04T03:26:16;17.30;51.90
25732;DHT22;13585;50.864;4.406;2023-12-04T03:28:42;17.30;51.90
25732;DHT22;13585;50.864;4.406;2023-12-04T03:31:08;17.30;52.50
25732;DHT22;13585;50.864;4.406;2023-12-04T03:33:34;17.30;52.40
25732;DHT22;13585;50.864;4.406;2023-12-04T03:35:59;17.30;51.80
25732;DHT22;13585;50.864;4.406;2023-12-04T03:38:25;17.30;51.80
25732;DHT22;13585;50.864;4.406;2023-12-04T03:40:51;17.30;51.80
25732;DHT22;13585;50.864;4.406;2023-12-04T03:43:16;17.30;51.80
25732;DHT22;13585;50.864;4.406;2023-12-04T03:45:42;17.30;51.70
25732;DHT22;13585;50.864;4.406;2023-12-04T03:48:08;17.20;51.60
25732;DHT22;13585;50.864;4.406;2023-12-04T03:50:33;17.30;51.70
25732;DHT22;13585;50.864;4.406;2023-12-04T03:52:59;17.30;51.70
25732;DHT22;13585;50.864;4.406;2023-12-04T03:55:24;17.30;51.70
25732;DHT22;13585;50.864;4.406;2023-12-04T03:57:50;17.20;51.60
25732;DHT22;13585;50.864;4.406;2023-12-04T04:00:17;17.20;51.50
25732;DHT22;13585;50.864;4.406;2023-12-04T04:02:43;17.20;51.50
25732;DHT22;13585;50.864;4.406;2023-12-04T04:05:09;17.20;51.50
25732;DHT22;13585;50.864;4.406;2023-12-04T04:07:35;17.20;51.50
25732;DHT22;13585;50.864;4.406;2023-12-04T04:10:00;17.20;51.50
25732;DHT22;13585;50.864;4.406;2023-12-04T04:12:30;17.20;51.40
25732;DHT22;13585;50.864;4.406;2023-12-04T04:14:56;17.20;51.30
25732;DHT22;13585;50.864;4.406;2023-12-04T04:17:21;17.20;51.80
25732;DHT22;13585;50.864;4.406;2023-12-04T04:19:47;17.20;51.10
25732;DHT22;13585;50.864;4.406;2023-12-04T04:22:13;17.20;51.10
25732;DHT22;13585;50.864;4.406;2023-12-04T04:24:38;17.20;51.00
25732;DHT22;13585;50.864;4.406;2023-12-04T04:27:04;17.20;50.90
25732;DHT22;13585;50.864;4.406;2023-12-04T04:29:30;17.30;50.90
25732;DHT22;13585;50.864;4.406;2023-12-04T04:31:55;17.20;50.80
25732;DHT22;13585;50.864;4.406;2023-12-04T04:34:21;17.20;50.80
25732;DHT22;13585;50.864;4.406;2023-12-04T04:36:47;17.20;50.80
25732;DHT22;13585;50.864;4.406;2023-12-04T04:39:13;17.20;50.70
25732;DHT22;13585;50.864;4.406;2023-12-04T04:41:39;17.30;50.70
25732;DHT22;13585;50.864;4.406;2023-12-04T04:44:05;17.30;50.70
25732;DHT22;13585;50.864;4.406;2023-12-04T04:46:32;17.30;50.70
25732;DHT22;13585;50.864;4.406;2023-12-04T04:48:57;17.30;50.70
25732;DHT22;13585;50.864;4.406;2023-12-04T04:51:23;17.30;50.60
25732;DHT22;13585;50.864;4.406;2023-12-04T04:53:49;17.30;50.60
25732;DHT22;13585;50.864;4.406;2023-12-04T04:56:15;17.30;50.60
25732;DHT22;13585;50.864;4.406;2023-12-04T04:58:41;17.30;50.50
25732;DHT22;13585;50.864;4.406;2023-12-04T05:01:07;17.40;50.60
25732;DHT22;13585;50.864;4.406;2023-12-04T05:03:33;17.40;50.50
25732;DHT22;13585;50.864;4.406;2023-12-04T05:05:59;17.30;50.40
25732;DHT22;13585;50.864;4.406;2023-12-04T05:08:25;17.30;50.40
25732;DHT22;13585;50.864;4.406;2023-12-04T05:10:51;17.30;50.40
25732;DHT22;13585;50.864;4.406;2023-12-04T05:13:17;17.30;50.40
25732;DHT22;13585;50.864;4.406;2023-12-04T05:15:43;17.40;50.40
25732;DHT22;13585;50.864;4.406;2023-12-04T05:18:08;17.40;50.40
25732;DHT22;13585;50.864;4.406;2023-12-04T05:20:34;17.40;50.40
25732;DHT22;13585;50.864;4.406;2023-12-04T05:23:00;17.40;50.40
25732;DHT22;13585;50.864;4.406;2023-12-04T05:25:25;17.40;50.30
25732;DHT22;13585;50.864;4.406;2023-12-04T05:30:30;17.40;50.30
25732;DHT22;13585;50.864;4.406;2023-12-04T05:32:56;17.40;50.40
25732;DHT22;13585;50.864;4.406;2023-12-04T05:35:22;17.40;50.30
25732;DHT22;13585;50.864;4.406;2023-12-04T05:37:48;17.40;50.30
25732;DHT22;13585;50.864;4.406;2023-12-04T05:40:14;17.50;50.30
25732;DHT22;13585;50.864;4.406;2023-12-04T05:45:49;17.50;50.40
25732;DHT22;13585;50.864;4.406;2023-12-04T05:48:33;17.50;50.20
25732;DHT22;13585;50.864;4.406;2023-12-04T05:51:14;17.50;50.30
25732;DHT22;13585;50.864;4.406;2023-12-04T05:53:40;17.50;50.30
25732;DHT22;13585;50.864;4.406;2023-12-04T05:56:07;17.50;50.20
25732;DHT22;13585;50.864;4.406;2023-12-04T05:58:34;17.50;50.20
25732;DHT22;13585;50.864;4.406;2023-12-04T06:01:00;17.50;50.20
25732;DHT22;13585;50.864;4.406;2023-12-04T06:03:25;17.50;50.20
25732;DHT22;13585;50.864;4.406;2023-12-04T06:05:51;17.50;50.10
25732;DHT22;13585;50.864;4.406;2023-12-04T06:08:19;17.50;50.20
25732;DHT22;13585;50.864;4.406;2023-12-04T06:10:46;17.50;50.20
25732;DHT22;13585;50.864;4.406;2023-12-04T06:13:11;17.50;50.20
25732;DHT22;13585;50.864;4.406;2023-12-04T06:15:39;17.50;50.20
25732;DHT22;13585;50.864;4.406;2023-12-04T06:18:04;17.60;50.20
25732;DHT22;13585;50.864;4.406;2023-12-04T06:20:30;17.60;50.10
25732;DHT22;13585;50.864;4.406;2023-12-04T06:23:07;17.60;50.20
25732;DHT22;13585;50.864;4.406;2023-12-04T06:25:33;17.60;50.20
25732;DHT22;13585;50.864;4.406;2023-12-04T06:27:58;17.60;50.10
25732;DHT22;13585;50.864;4.406;2023-12-04T06:30:24;17.60;50.20
25732;DHT22;13585;50.864;4.406;2023-12-04T06:32:52;17.60;50.20
25732;DHT22;13585;50.864;4.406;2023-12-04T06:35:18;17.60;50.20
25732;DHT22;13585;50.864;4.406;2023-12-04T06:37:45;17.60;50.30
25732;DHT22;13585;50.864;4.406;2023-12-04T06:40:12;17.60;51.00
25732;DHT22;13585;50.864;4.406;2023-12-04T06:42:38;17.60;50.40
25732;DHT22;13585;50.864;4.406;2023-12-04T06:45:07;17.70;50.40
25732;DHT22;13585;50.864;4.406;2023-12-04T06:47:36;17.70;50.50
25732;DHT22;13585;50.864;4.406;2023-12-04T06:50:02;17.70;50.50
25732;DHT22;13585;50.864;4.406;2023-12-04T06:52:28;17.70;50.40
25732;DHT22;13585;50.864;4.406;2023-12-04T06:54:53;17.70;50.40
25732;DHT22;13585;50.864;4.406;2023-12-04T06:57:19;17.70;50.40
25732;DHT22;13585;50.864;4.406;2023-12-04T06:59:54;17.70;50.50
25732;DHT22;13585;50.864;4.406;2023-12-04T07:02:41;17.70;50.50
25732;DHT22;13585;50.864;4.406;2023-12-04T07:08:28;17.80;50.50
25732;DHT22;13585;50.864;4.406;2023-12-04T07:10:57;17.70;50.40
25732;DHT22;13585;50.864;4.406;2023-12-04T07:13:25;17.70;50.50
25732;DHT22;13585;50.864;4.406;2023-12-04T07:15:51;17.70;50.50
25732;DHT22;13585;50.864;4.406;2023-12-04T07:18:16;17.70;50.50
25732;DHT22;13585;50.864;4.406;2023-12-04T07:20:42;17.70;50.50
25732;DHT22;13585;50.864;4.406;2023-12-04T07:23:08;17.70;50.50
25732;DHT22;13585;50.864;4.406;2023-12-04T07:25:33;17.70;50.40
25732;DHT22;13585;50.864;4.406;2023-12-04T07:27:59;17.70;50.40
25732;DHT22;13585;50.864;4.406;2023-12-04T07:30:25;17.70;50.30
25732;DHT22;13585;50.864;4.406;2023-12-04T07:32:51;17.70;50.30
25732;DHT22;13585;50.864;4.406;2023-12-04T07:35:17;17.70;50.20
25732;DHT22;13585;50.864;4.406;2023-12-04T07:37:46;17.70;50.20
25732;DHT22;13585;50.864;4.406;2023-12-04T07:40:12;17.70;50.10
25732;DHT22;13585;50.864;4.406;2023-12-04T07:42:41;17.70;50.10
25732;DHT22;13585;50.864;4.406;2023-12-04T07:45:13;17.70;50.10
25732;DHT22;13585;50.864;4.406;2023-12-04T07:47:41;17.70;50.10
25732;DHT22;13585;50.864;4.406;2023-12-04T07:50:07;17.70;50.00
25732;DHT22;13585;50.864;4.406;2023-12-04T07:52:32;17.70;50.00
25732;DHT22;13585;50.864;4.406;2023-12-04T07:54:58;17.70;50.00
25732;DHT22;13585;50.864;4.406;2023-12-04T07:57:24;17.70;49.90
25732;DHT22;13585;50.864;4.406;2023-12-04T07:59:49;17.60;49.90
25732;DHT22;13585;50.864;4.406;2023-12-04T08:02:15;17.60;49.80
25732;DHT22;13585;50.864;4.406;2023-12-04T08:04:41;17.60;49.70
25732;DHT22;13585;50.864;4.406;2023-12-04T08:07:06;17.60;49.70
25732;DHT22;13585;50.864;4.406;2023-12-04T08:09:37;17.60;49.70
25732;DHT22;13585;50.864;4.406;2023-12-04T08:12:03;17.70;49.70
25732;DHT22;13585;50.864;4.406;2023-12-04T08:14:29;17.60;49.60
25732;DHT22;13585;50.864;4.406;2023-12-04T08:16:55;17.60;49.60
25732;DHT22;13585;50.864;4.406;2023-12-04T08:19:23;17.60;49.50
25732;DHT22;13585;50.864;4.406;2023-12-04T08:21:49;17.60;49.50
25732;DHT22;13585;50.864;4.406;2023-12-04T08:24:14;17.60;49.50
25732;DHT22;13585;50.864;4.406;2023-12-04T08:26:42;17.60;49.50
25732;DHT22;13585;50.864;4.406;2023-12-04T08:29:08;17.60;49.50
25732;DHT22;13585;50.864;4.406;2023-12-04T08:31:36;17.60;49.50
25732;DHT22;13585;50.864;4.406;2023-12-04T08:34:02;17.60;49.50
25732;DHT22;13585;50.864;4.406;2023-12-04T08:36:27;17.60;49.50
25732;DHT22;13585;50.864;4.406;2023-12-04T08:38:53;17.60;49.50
25732;DHT22;13585;50.864;4.406;2023-12-04T08:41:19;17.60;49.50
25732;DHT22;13585;50.864;4.406;2023-12-04T08:43:44;17.60;49.50
25732;DHT22;13585;50.864;4.406;2023-12-04T08:46:13;17.60;49.50
25732;DHT22;13585;50.864;4.406;2023-12-04T08:48:42;17.60;49.50
25732;DHT22;13585;50.864;4.406;2023-12-04T08:51:15;17.60;49.40
25732;DHT22;13585;50.864;4.406;2023-12-04T08:53:41;17.60;49.40
25732;DHT22;13585;50.864;4.406;2023-12-04T08:56:07;17.60;49.40
25732;DHT22;13585;50.864;4.406;2023-12-04T08:58:32;17.60;49.40
25732;DHT22;13585;50.864;4.406;2023-12-04T09:00:58;17.60;49.40
25732;DHT22;13585;50.864;4.406;2023-12-04T09:03:23;17.60;49.40
25732;DHT22;13585;50.864;4.406;2023-12-04T09:05:49;17.60;49.30
25732;DHT22;13585;50.864;4.406;2023-12-04T09:08:17;17.50;49.30
25732;DHT22;13585;50.864;4.406;2023-12-04T09:10:44;17.50;49.20
25732;DHT22;13585;50.864;4.406;2023-12-04T09:13:15;17.50;49.20
25732;DHT22;13585;50.864;4.406;2023-12-04T09:15:40;17.50;49.20
25732;DHT22;13585;50.864;4.406;2023-12-04T09:18:06;17.50;49.20
25732;DHT22;13585;50.864;4.406;2023-12-04T09:20:32;17.50;49.20
25732;DHT22;13585;50.864;4.406;2023-12-04T09:22:57;17.50;49.20
25732;DHT22;13585;50.864;4.406;2023-12-04T09:25:23;17.50;49.20
25732;DHT22;13585;50.864;4.406;2023-12-04T09:27:48;17.50;49.20
25732;DHT22;13585;50.864;4.406;2023-12-04T09:30:14;17.50;49.20
25732;DHT22;13585;50.864;4.406;2023-12-04T09:32:40;17.50;49.20
25732;DHT22;13585;50.864;4.406;2023-12-04T09:35:06;17.50;49.20
25732;DHT22;13585;50.864;4.406;2023-12-04T09:37:32;17.50;49.20
25732;DHT22;13585;50.864;4.406;2023-12-04T09:39:58;17.50;49.20
25732;DHT22;13585;50.864;4.406;2023-12-04T09:42:24;17.50;49.10
25732;DHT22;13585;50.864;4.406;2023-12-04T09:44:52;17.50;49.20
25732;DHT22;13585;50.864;4.406;2023-12-04T09:47:20;17.50;49.20
25732;DHT22;13585;50.864;4.406;2023-12-04T09:49:47;17.50;49.20
25732;DHT22;13585;50.864;4.406;2023-12-04T09:52:14;17.50;49.20
25732;DHT22;13585;50.864;4.406;2023-12-04T09:54:44;17.50;49.90
25732;DHT22;13585;50.864;4.406;2023-12-04T09:57:09;17.50;49.30
25732;DHT22;13585;50.864;4.406;2023-12-04T09:59:36;17.50;49.20
25732;DHT22;13585;50.864;4.406;2023-12-04T10:02:02;17.50;49.20
25732;DHT22;13585;50.864;4.406;2023-12-04T10:04:28;17.50;49.30
25732;DHT22;13585;50.864;4.406;2023-12-04T10:06:56;17.50;49.20
25732;DHT22;13585;50.864;4.406;2023-12-04T10:09:21;17.50;49.20
25732;DHT22;13585;50.864;4.406;2023-12-04T10:11:50;17.50;49.20
25732;DHT22;13585;50.864;4.406;2023-12-04T10:14:20;17.50;49.10
25732;DHT22;13585;50.864;4.406;2023-12-04T10:16:46;17.50;49.10
25732;DHT22;13585;50.864;4.406;2023-12-04T10:19:20;17.50;49.10
25732;DHT22;13585;50.864;4.406;2023-12-04T10:21:49;17.50;49.10
25732;DHT22;13585;50.864;4.406;2023-12-04T10:24:34;17.50;49.10
25732;DHT22;13585;50.864;4.406;2023-12-04T10:27:11;17.50;49.10
25732;DHT22;13585;50.864;4.406;2023-12-04T10:29:44;17.50;49.10
25732;DHT22;13585;50.864;4.406;2023-12-04T10:32:11;17.40;49.00
25732;DHT22;13585;50.864;4.406;2023-12-04T10:34:37;17.50;49.00
25732;DHT22;13585;50.864;4.406;2023-12-04T10:37:04;17.50;49.00
25732;DHT22;13585;50.864;4.406;2023-12-04T10:39:30;17.50;49.00
25732;DHT22;13585;50.864;4.406;2023-12-04T10:42:01;17.50;49.00
25732;DHT22;13585;50.864;4.406;2023-12-04T10:44:28;17.50;49.00
25732;DHT22;13585;50.864;4.406;2023-12-04T10:46:55;17.40;49.00
25732;DHT22;13585;50.864;4.406;2023-12-04T10:49:26;17.50;49.00
25732;DHT22;13585;50.864;4.406;2023-12-04T10:54:21;17.40;48.90
25732;DHT22;13585;50.864;4.406;2023-12-04T10:57:06;17.40;49.00
25732;DHT22;13585;50.864;4.406;2023-12-04T10:59:38;17.40;48.90
25732;DHT22;13585;50.864;4.406;2023-12-04T11:02:05;17.40;48.90
25732;DHT22;13585;50.864;4.406;2023-12-04T11:05:07;17.50;49.00
25732;DHT22;13585;50.864;4.406;2023-12-04T11:07:48;17.40;49.00
25732;DHT22;13585;50.864;4.406;2023-12-04T11:10:15;17.50;49.10
25732;DHT22;13585;50.864;4.406;2023-12-04T11:12:45;17.50;49.10
25732;DHT22;13585;50.864;4.406;2023-12-04T11:15:14;17.40;49.10
25732;DHT22;13585;50.864;4.406;2023-12-04T11:17:43;17.40;49.10
25732;DHT22;13585;50.864;4.406;2023-12-04T11:20:16;17.40;49.20
25732;DHT22;13585;50.864;4.406;2023-12-04T11:22:45;17.40;49.20
25732;DHT22;13585;50.864;4.406;2023-12-04T11:25:13;17.50;49.30
25732;DHT22;13585;50.864;4.406;2023-12-04T11:27:39;17.50;49.30
25732;DHT22;13585;50.864;4.406;2023-12-04T11:30:07;17.40;49.30
25732;DHT22;13585;50.864;4.406;2023-12-04T11:32:46;17.40;49.30
25732;DHT22;13585;50.864;4.406;2023-12-04T11:35:15;17.40;49.40
25732;DHT22;13585;50.864;4.406;2023-12-04T11:37:46;17.40;49.40
25732;DHT22;13585;50.864;4.406;2023-12-04T11:40:16;17.50;49.50
25732;DHT22;13585;50.864;4.406;2023-12-04T11:42:42;17.40;49.50
25732;DHT22;13585;50.864;4.406;2023-12-04T11:45:08;17.50;49.50
25732;DHT22;13585;50.864;4.406;2023-12-04T11:47:49;17.50;49.50
25732;DHT22;13585;50.864;4.406;2023-12-04T11:50:18;17.50;49.60
25732;DHT22;13585;50.864;4.406;2023-12-04T11:52:44;17.50;49.60
25732;DHT22;13585;50.864;4.406;2023-12-04T11:55:10;17.50;49.60
25732;DHT22;13585;50.864;4.406;2023-12-04T11:57:39;17.40;49.60
25732;DHT22;13585;50.864;4.406;2023-12-04T12:05:22;17.40;49.70
25732;DHT22;13585;50.864;4.406;2023-12-04T12:07:49;17.40;49.60
25732;DHT22;13585;50.864;4.406;2023-12-04T12:10:16;17.40;49.70
25732;DHT22;13585;50.864;4.406;2023-12-04T12:12:46;17.40;49.70
25732;DHT22;13585;50.864;4.406;2023-12-04T12:15:12;17.40;49.80
25732;DHT22;13585;50.864;4.406;2023-12-04T12:17:40;17.40;49.70
25732;DHT22;13585;50.864;4.406;2023-12-04T12:20:15;17.40;49.70
25732;DHT22;13585;50.864;4.406;2023-12-04T12:23:00;17.50;49.80
25732;DHT22;13585;50.864;4.406;2023-12-04T12:25:25;17.40;49.80
25732;DHT22;13585;50.864;4.406;2023-12-04T12:27:51;17.40;49.70
25732;DHT22;13585;50.864;4.406;2023-12-04T12:30:17;17.40;49.70
25732;DHT22;13585;50.864;4.406;2023-12-04T12:32:55;17.40;49.70
25732;DHT22;13585;50.864;4.406;2023-12-04T12:35:20;17.40;49.70
25732;DHT22;13585;50.864;4.406;2023-12-04T12:37:46;17.40;49.60
25732;DHT22;13585;50.864;4.406;2023-12-04T12:40:11;17.40;49.60
25732;DHT22;13585;50.864;4.406;2023-12-04T12:42:38;17.40;49.60
25732;DHT22;13585;50.864;4.406;2023-12-04T12:45:07;17.40;49.60
25732;DHT22;13585;50.864;4.406;2023-12-04T12:47:35;17.40;49.60
25732;DHT22;13585;50.864;4.406;2023-12-04T12:50:01;17.40;49.60
25732;DHT22;13585;50.864;4.406;2023-12-04T12:52:28;17.40;49.70
25732;DHT22;13585;50.864;4.406;2023-12-04T12:54:54;17.40;49.50
25732;DHT22;13585;50.864;4.406;2023-12-04T12:57:20;17.40;49.50
25732;DHT22;13585;50.864;4.406;2023-12-04T12:59:50;17.40;49.50
25732;DHT22;13585;50.864;4.406;2023-12-04T13:02:15;17.40;49.50
25732;DHT22;13585;50.864;4.406;2023-12-04T13:04:42;17.40;49.50
25732;DHT22;13585;50.864;4.406;2023-12-04T13:07:08;17.40;49.50
25732;DHT22;13585;50.864;4.406;2023-12-04T13:09:34;17.40;49.50
25732;DHT22;13585;50.864;4.406;2023-12-04T13:12:04;17.40;49.50
25732;DHT22;13585;50.864;4.406;2023-12-04T13:14:30;17.40;49.50
25732;DHT22;13585;50.864;4.406;2023-12-04T13:16:56;17.40;49.50
25732;DHT22;13585;50.864;4.406;2023-12-04T13:19:22;17.40;49.50
25732;DHT22;13585;50.864;4.406;2023-12-04T13:21:50;17.40;49.50
25732;DHT22;13585;50.864;4.406;2023-12-04T13:24:16;17.40;49.50
25732;DHT22;13585;50.864;4.406;2023-12-04T13:26:43;17.40;49.50
25732;DHT22;13585;50.864;4.406;2023-12-04T13:29:08;17.40;49.50
25732;DHT22;13585;50.864;4.406;2023-12-04T13:31:34;17.40;49.50
25732;DHT22;13585;50.864;4.406;2023-12-04T13:34:00;17.40;49.50
25732;DHT22;13585;50.864;4.406;2023-12-04T13:36:25;17.40;49.50
25732;DHT22;13585;50.864;4.406;2023-12-04T13:38:52;17.40;49.50
25732;DHT22;13585;50.864;4.406;2023-12-04T13:41:19;17.40;49.80
25732;DHT22;13585;50.864;4.406;2023-12-04T13:44:04;17.40;49.50
25732;DHT22;13585;50.864;4.406;2023-12-04T13:46:30;17.40;49.50
25732;DHT22;13585;50.864;4.406;2023-12-04T13:48:57;17.40;49.50
25732;DHT22;13585;50.864;4.406;2023-12-04T13:51:23;17.40;49.50
25732;DHT22;13585;50.864;4.406;2023-12-04T13:53:49;17.40;49.50
25732;DHT22;13585;50.864;4.406;2023-12-04T13:56:20;17.40;49.50
25732;DHT22;13585;50.864;4.406;2023-12-04T13:58:46;17.40;49.50
25732;DHT22;13585;50.864;4.406;2023-12-04T14:01:12;17.40;49.50
25732;DHT22;13585;50.864;4.406;2023-12-04T14:03:44;17.40;49.50
25732;DHT22;13585;50.864;4.406;2023-12-04T14:06:10;17.40;49.50
25732;DHT22;13585;50.864;4.406;2023-12-04T14:08:36;17.40;49.50
25732;DHT22;13585;50.864;4.406;2023-12-04T14:11:05;17.40;49.50
25732;DHT22;13585;50.864;4.406;2023-12-04T14:13:32;17.40;49.50
25732;DHT22;13585;50.864;4.406;2023-12-04T14:15:58;17.40;49.50
25732;DHT22;13585;50.864;4.406;2023-12-04T14:18:24;17.40;49.50
25732;DHT22;13585;50.864;4.406;2023-12-04T14:20:52;17.40;49.60
25732;DHT22;13585;50.864;4.406;2023-12-04T14:23:17;17.40;49.50
25732;DHT22;13585;50.864;4.406;2023-12-04T14:25:44;17.40;49.60
25732;DHT22;13585;50.864;4.406;2023-12-04T14:28:10;17.40;49.60
25732;DHT22;13585;50.864;4.406;2023-12-04T14:30:36;17.40;49.50
25732;DHT22;13585;50.864;4.406;2023-12-04T14:33:02;17.40;49.60
25732;DHT22;13585;50.864;4.406;2023-12-04T14:35:27;17.40;49.60
25732;DHT22;13585;50.864;4.406;2023-12-04T14:37:53;17.40;50.20
25732;DHT22;13585;50.864;4.406;2023-12-04T14:40:19;17.40;49.60
25732;DHT22;13585;50.864;4.406;2023-12-04T14:42:45;17.40;49.60
25732;DHT22;13585;50.864;4.406;2023-12-04T14:45:12;17.40;49.60
25732;DHT22;13585;50.864;4.406;2023-12-04T14:51:13;17.40;49.60
25732;DHT22;13585;50.864;4.406;2023-12-04T14:53:40;17.40;49.60
25732;DHT22;13585;50.864;4.406;2023-12-04T14:56:26;17.40;49.50
25732;DHT22;13585;50.864;4.406;2023-12-04T14:59:21;17.40;49.60
25732;DHT22;13585;50.864;4.406;2023-12-04T15:02:17;17.40;49.60
25732;DHT22;13585;50.864;4.406;2023-12-04T15:05:02;17.40;49.70
25732;DHT22;13585;50.864;4.406;2023-12-04T15:08:02;17.40;49.60
25732;DHT22;13585;50.864;4.406;2023-12-04T15:10:28;17.40;49.70
25732;DHT22;13585;50.864;4.406;2023-12-04T15:13:12;17.40;49.70
25732;DHT22;13585;50.864;4.406;2023-12-04T15:15:38;17.40;49.70
25732;DHT22;13585;50.864;4.406;2023-12-04T15:18:26;17.40;49.70
25732;DHT22;13585;50.864;4.406;2023-12-04T15:21:00;17.40;49.70
25732;DHT22;13585;50.864;4.406;2023-12-04T15:23:25;17.40;49.70
25732;DHT22;13585;50.864;4.406;2023-12-04T15:25:52;17.40;49.80
25732;DHT22;13585;50.864;4.406;2023-12-04T15:28:18;17.40;49.80
25732;DHT22;13585;50.864;4.406;2023-12-04T15:30:43;17.40;49.80
25732;DHT22;13585;50.864;4.406;2023-12-04T15:33:10;17.20;49.70
25732;DHT22;13585;50.864;4.406;2023-12-04T15:35:44;17.40;49.80
25732;DHT22;13585;50.864;4.406;2023-12-04T15:38:13;17.40;49.90
25732;DHT22;13585;50.864;4.406;2023-12-04T15:40:39;17.40;49.80
25732;DHT22;13585;50.864;4.406;2023-12-04T15:43:05;17.40;49.80
25732;DHT22;13585;50.864;4.406;2023-12-04T15:45:31;17.40;49.80
25732;DHT22;13585;50.864;4.406;2023-12-04T15:47:56;17.40;49.80
25732;DHT22;13585;50.864;4.406;2023-12-04T15:50:22;17.40;49.80
25732;DHT22;13585;50.864;4.406;2023-12-04T15:52:48;17.40;49.80
25732;DHT22;13585;50.864;4.406;2023-12-04T15:55:14;17.40;49.80